Mikiona — WDD5057 — position and weather

sailwx.info

Track history (hours):
 
Tides and Currents Weather Stations Pressure Air Temp Water Temp Dewpoint Dewpoint Depression Visibility Wind Speed Wind Dir Waves Ship Positions

Mikiona

Owner: Sause Bros Inc, Coos Bay, OR. More information available from US FCC via Universal Licensing System and Coast Guard Vessel Documentation Center.

Last reported at 2018-Feb-22 18:00 UTC. Time now 2018-Feb-22 18:26 UTC.
Position N 37°55' W 122°25'.

Length 38 m; draft 4.5 m.

Type: Towing. MMSI: 367153070.

Date/timePositionNaut miles runAvg speedWind from/ knotsBaromVisibWave heightAir tempDewpointWater temp
2018-Feb-22 18:00N 37°55' W 122°25'0 0.0
2018-Feb-22 17:30N 37°55' W 122°25'0 0.0
2018-Feb-22 17:00N 37°55' W 122°25'0 0.0
2018-Feb-22 16:30N 37°55' W 122°25'0 0.0
2018-Feb-22 16:00N 37°55' W 122°25'0 0.0
2018-Feb-22 15:30N 37°55' W 122°25'0 0.0
2018-Feb-22 14:54N 37°55' W 122°25'0 0.0
2018-Feb-22 14:24N 37°55' W 122°25'0 0.0
2018-Feb-22 14:00N 37°55' W 122°25'0 0.0
2018-Feb-22 13:30N 37°55' W 122°25'0 0.0
2018-Feb-22 13:00N 37°55' W 122°25'0 0.0
2018-Feb-22 12:30N 37°55' W 122°25'0 0.0
2018-Feb-22 11:57N 37°55' W 122°25'0 0.0
2018-Feb-22 11:30N 37°55' W 122°25'0 0.0
2018-Feb-22 11:00N 37°55' W 122°25'0 0.0
2018-Feb-22 10:30N 37°55' W 122°25'0 0.0
2018-Feb-22 10:00N 37°55' W 122°25'0 0.0
2018-Feb-22 09:27N 37°55' W 122°25'0 0.0
2018-Feb-22 09:00N 37°55' W 122°25'0 0.0
2018-Feb-22 08:30N 37°55' W 122°25'0 0.0
2018-Feb-22 08:00N 37°55' W 122°25'0 0.0
2018-Feb-22 07:30N 37°55' W 122°25'0 0.0
2018-Feb-22 06:57N 37°55' W 122°25'0 0.0
2018-Feb-22 06:30N 37°55' W 122°25'0 0.0
2018-Feb-22 06:00N 37°55' W 122°25'0 0.0
2018-Feb-22 05:30N 37°55' W 122°25'0 0.0
2018-Feb-22 04:57N 37°55' W 122°25'0 0.0
2018-Feb-22 04:30N 37°55' W 122°25'0 0.0
2018-Feb-22 04:00N 37°55' W 122°25'0 0.0
2018-Feb-22 03:30N 37°55' W 122°25'0 0.0
2018-Feb-22 03:00N 37°55' W 122°25'0 0.0
2018-Feb-22 02:24N 37°55' W 122°25'0 0.0
2018-Feb-22 02:00N 37°55' W 122°25'0 0.0
2018-Feb-22 01:30N 37°55' W 122°25'0 0.0
2018-Feb-22 00:57N 37°55' W 122°25'0 0.0
2018-Feb-22 00:30N 37°55' W 122°25'0 0.0
2018-Feb-22 00:00N 37°55' W 122°25'0 0.0
2018-Feb-21 23:30N 37°55' W 122°25'0 0.0
2018-Feb-21 23:00N 37°55' W 122°25'0 0.0
2018-Feb-21 22:30N 37°55' W 122°25'0 0.0
2018-Feb-21 22:00N 37°55' W 122°25'0 0.0
2018-Feb-21 21:30N 37°55' W 122°25'0 0.2
2018-Feb-21 21:00N 37°55' W 122°25'0 0.5
2018-Feb-21 20:30N 37°55' W 122°25'1 2.0
2018-Feb-21 20:00N 37°55' W 122°26'2 4.2
2018-Feb-21 19:30N 37°53' W 122°25'3 6.7
2018-Feb-21 19:00N 37°50' W 122°24'4 8.4
2018-Feb-21 18:30N 37°49' W 122°30'4 7.6
2018-Feb-21 18:00N 37°47' W 122°34'4 8.2
2018-Feb-21 17:30N 37°46' W 122°39'4 7.6
2018-Feb-21 17:00N 37°42' W 122°40'5 8.4
2018-Feb-21 16:23N 37°37' W 122°39'3 7.6
2018-Feb-21 16:00N 37°34' W 122°39'5 9.3
2018-Feb-21 15:30N 37°29' W 122°39'5 9.3
2018-Feb-21 15:00N 37°25' W 122°40'5 9.5
2018-Feb-21 14:30N 37°20' W 122°40'5 9.4
2018-Feb-21 13:57N 37°15' W 122°40'149 7.7
2018-Feb-20 18:39N 34°60' W 121°22'2 6.4
2018-Feb-20 18:25N 34°59' W 121°21'7 6.7
2018-Feb-20 17:22N 34°53' W 121°16'3 6.8
2018-Feb-20 17:00N 34°51' W 121°14'7 6.9
2018-Feb-20 15:57N 34°45' W 121°08'3 6.9
2018-Feb-20 15:29N 34°43' W 121°06'3 6.9
2018-Feb-20 15:00N 34°40' W 121°04'4 7.1
2018-Feb-20 14:30N 34°37' W 121°01'3 6.5
2018-Feb-20 14:00N 34°35' W 120°59'3 6.8
2018-Feb-20 13:30N 34°32' W 120°56'3 6.7
2018-Feb-20 13:00N 34°29' W 120°54'3 6.8
2018-Feb-20 12:31N 34°27' W 120°51'3 6.9
2018-Feb-20 12:00N 34°26' W 120°47'3 7.0
2018-Feb-20 11:30N 34°25' W 120°43'4 7.0
2018-Feb-20 11:00N 34°24' W 120°39'3 7.0
2018-Feb-20 10:30N 34°23' W 120°35'4 7.4
2018-Feb-20 10:00N 34°22' W 120°30'4 7.4
2018-Feb-20 09:30N 34°21' W 120°26'4 7.5
2018-Feb-20 09:00N 34°20' W 120°22'4 7.9
2018-Feb-20 08:30N 34°19' W 120°17'4 7.8
2018-Feb-20 08:00N 34°18' W 120°13'4 7.3
2018-Feb-20 07:30N 34°17' W 120°08'4 6.4
2018-Feb-20 06:56N 34°16' W 120°04'3 6.2
2018-Feb-20 06:30N 34°15' W 120°01'3 6.2
2018-Feb-20 06:00N 34°14' W 119°57'3 5.8
2018-Feb-20 05:27N 34°13' W 119°54'2 5.5
2018-Feb-20 05:00N 34°13' W 119°51'3 5.4
2018-Feb-20 04:28N 34°12' W 119°47'3 5.1
2018-Feb-20 03:57N 34°11' W 119°44'3 5.0
2018-Feb-20 03:23N 34°10' W 119°41'2 4.8
2018-Feb-20 02:55N 34°10' W 119°38'2 4.7
2018-Feb-20 02:28N 34°09' W 119°36'2 4.5
2018-Feb-20 01:57N 34°09' W 119°33'2 4.1
2018-Feb-20 01:26N 34°08' W 119°31'2 3.9
2018-Feb-20 00:52N 34°08' W 119°28'2 3.8
2018-Feb-20 00:24N 34°07' W 119°26'2 3.6
2018-Feb-19 23:57N 34°07' W 119°24'2 3.7
2018-Feb-19 23:30N 34°06' W 119°22'2 3.5
2018-Feb-19 22:59N 34°06' W 119°20'2 3.7
2018-Feb-19 22:30N 34°05' W 119°18'2 3.8
2018-Feb-19 22:00N 34°05' W 119°16'3 4.3
2018-Feb-19 21:23N 34°04' W 119°13'2 4.7
2018-Feb-19 20:58N 34°03' W 119°11'2 4.9
2018-Feb-19 20:29N 34°01' W 119°08'3 5.1
2018-Feb-19 20:00N 34°00' W 119°06'3 5.2
2018-Feb-19 19:30N 33°59' W 119°03'3 5.2
2018-Feb-19 19:00N 33°58' W 119°00'2 5.0
2018-Feb-19 18:30N 33°56' W 118°58'3 5.1
2018-Feb-19 18:00N 33°55' W 118°55'3 5.1
2018-Feb-19 17:30N 33°54' W 118°52'2 5.0
2018-Feb-19 17:00N 33°53' W 118°50'2 4.7
2018-Feb-19 16:30N 33°52' W 118°47'2 4.7
2018-Feb-19 16:00N 33°50' W 118°45'2 4.5
2018-Feb-19 15:30N 33°49' W 118°43'2 4.1
2018-Feb-19 14:59N 33°48' W 118°40'2 4.1
2018-Feb-19 14:30N 33°47' W 118°38'2 3.8
2018-Feb-19 14:01N 33°46' W 118°36'2 3.5
2018-Feb-19 13:25N 33°45' W 118°34'1 3.2
2018-Feb-19 12:59N 33°44' W 118°33'15 2.9
2018-Feb-19 07:54N 33°42' W 118°15'1 3.0
2018-Feb-19 07:28N 33°43' W 118°16'2 5.5
2018-Feb-19 07:00N 33°46' W 118°16'0 0.3
2018-Feb-19 06:30N 33°46' W 118°16'0 0.1
2018-Feb-19 06:00N 33°46' W 118°16'0 0.3
2018-Feb-19 05:30N 33°46' W 118°16'0 0.1
2018-Feb-19 05:00N 33°46' W 118°16'0 0.0
2018-Feb-19 04:30N 33°46' W 118°16'0 0.0
2018-Feb-19 04:00N 33°46' W 118°16'0 0.0
2018-Feb-19 03:30N 33°46' W 118°16'0 0.0
2018-Feb-19 03:00N 33°46' W 118°16'0 0.0
2018-Feb-19 02:30N 33°46' W 118°16'0 0.0
2018-Feb-19 02:00N 33°46' W 118°16'0 0.0
2018-Feb-19 01:30N 33°46' W 118°16'0 0.0
2018-Feb-19 01:00N 33°46' W 118°16'0 0.0
2018-Feb-19 00:30N 33°46' W 118°16'0 0.0
2018-Feb-19 00:00N 33°46' W 118°16'2 3.1
2018-Feb-18 23:30N 33°44' W 118°17'3 6.0
2018-Feb-18 23:01N 33°45' W 118°13'1 2.1
2018-Feb-18 22:23N 33°46' W 118°13'0 0.0
2018-Feb-18 21:59N 33°46' W 118°13'0 0.0
2018-Feb-18 21:29N 33°46' W 118°13'0 0.1
2018-Feb-18 20:59N 33°46' W 118°13'0 0.1
2018-Feb-18 20:29N 33°46' W 118°13'0 0.1
2018-Feb-18 19:53N 33°46' W 118°13'0 0.0
2018-Feb-18 19:29N 33°46' W 118°13'0 0.0
2018-Feb-18 18:59N 33°46' W 118°13'0 0.1
2018-Feb-18 18:26N 33°46' W 118°13'0 0.0
2018-Feb-18 17:59N 33°46' W 118°13'0 0.0
2018-Feb-18 17:29N 33°46' W 118°13'0 0.0
2018-Feb-18 16:59N 33°46' W 118°13'0 0.0
2018-Feb-18 16:29N 33°46' W 118°13'0 0.0
2018-Feb-18 15:59N 33°46' W 118°13'0 0.1
2018-Feb-18 15:29N 33°46' W 118°13'0 0.0
2018-Feb-18 14:59N 33°46' W 118°13'0 0.0
2018-Feb-18 14:26N 33°46' W 118°13'0 0.1
2018-Feb-18 13:50N 33°46' W 118°13'0 0.0
2018-Feb-18 13:26N 33°46' W 118°13'0 0.1
2018-Feb-18 12:44N 33°46' W 118°13'0 0.1
2018-Feb-18 12:17N 33°46' W 118°13'0 0.0
2018-Feb-18 11:59N 33°46' W 118°13'0 0.0
2018-Feb-18 11:29N 33°46' W 118°13'0 0.0
2018-Feb-18 10:56N 33°46' W 118°13'0 0.0
2018-Feb-18 10:29N 33°46' W 118°13'0 0.0
2018-Feb-18 09:59N 33°46' W 118°13'0 0.0
2018-Feb-18 09:29N 33°46' W 118°13'0 0.0
2018-Feb-18 08:44N 33°46' W 118°13'0 0.2
2018-Feb-18 08:26N 33°46' W 118°13'0 0.0
2018-Feb-18 07:23N 33°46' W 118°13'0 0.0
2018-Feb-18 06:44N 33°46' W 118°13'0 0.0
2018-Feb-18 06:29N 33°46' W 118°13'0 0.0
2018-Feb-18 05:19N 33°46' W 118°13'0 0.5
2018-Feb-18 05:01N 33°46' W 118°13'4 7.2
2018-Feb-18 04:30N 33°43' W 118°16'3 5.4
2018-Feb-18 04:00N 33°46' W 118°16'0 0.1
2018-Feb-18 03:30N 33°46' W 118°16'1 2.7
2018-Feb-18 03:00N 33°45' W 118°16'2 4.2
2018-Feb-18 02:30N 33°43' W 118°15'2 3.2
2018-Feb-18 02:00N 33°44' W 118°14'0 0.1
2018-Feb-18 01:31N 33°44' W 118°14'0 0.2
2018-Feb-18 00:58N 33°44' W 118°14'0 0.0
2018-Feb-18 00:25N 33°44' W 118°14'0 0.0
2018-Feb-17 23:58N 33°44' W 118°14'0 0.0
2018-Feb-17 23:28N 33°44' W 118°14'0 0.0
2018-Feb-17 22:58N 33°44' W 118°14'0 0.0
2018-Feb-17 22:28N 33°44' W 118°14'0 0.0
2018-Feb-17 21:58N 33°44' W 118°14'0 0.0
2018-Feb-17 21:25N 33°44' W 118°14'0 0.0
2018-Feb-17 20:58N 33°44' W 118°14'0 0.0
2018-Feb-17 20:28N 33°44' W 118°14'0 0.1
2018-Feb-17 19:58N 33°44' W 118°14'0 0.0
2018-Feb-17 19:28N 33°44' W 118°14'0 0.0
2018-Feb-17 18:58N 33°44' W 118°14'0 0.0
2018-Feb-17 18:28N 33°44' W 118°14'0 0.1
2018-Feb-17 17:58N 33°44' W 118°14'0 0.1
2018-Feb-17 17:25N 33°44' W 118°14'0 0.0
2018-Feb-17 16:58N 33°44' W 118°14'0 0.1
2018-Feb-17 16:28N 33°44' W 118°14'0 0.0
2018-Feb-17 15:58N 33°44' W 118°14'0 0.1
2018-Feb-17 15:28N 33°44' W 118°14'0 0.0
2018-Feb-17 14:58N 33°44' W 118°14'0 0.1
2018-Feb-17 14:28N 33°44' W 118°14'0 0.0
2018-Feb-17 13:46N 33°44' W 118°14'0 0.1
2018-Feb-17 13:13N 33°44' W 118°14'0 0.0
2018-Feb-17 07:28N 33°44' W 118°14'0 0.0
2018-Feb-17 06:01N 33°44' W 118°14'0 0.0
2018-Feb-17 05:49N 33°44' W 118°14'0 0.0
2018-Feb-17 05:22N 33°44' W 118°14'0 0.0
2018-Feb-17 04:58N 33°44' W 118°14'0 0.1
2018-Feb-17 04:28N 33°44' W 118°14'0 0.0
2018-Feb-17 03:58N 33°44' W 118°14'0 0.0
2018-Feb-17 03:28N 33°44' W 118°14'0 0.0
2018-Feb-17 02:58N 33°44' W 118°14'0 0.0
2018-Feb-17 02:28N 33°44' W 118°14'0 0.0
2018-Feb-17 01:58N 33°44' W 118°14'0 0.0
2018-Feb-17 01:28N 33°44' W 118°14'0 0.0
2018-Feb-17 00:58N 33°44' W 118°14'0 0.0
2018-Feb-17 00:22N 33°44' W 118°14'0 0.1
2018-Feb-16 23:58N 33°44' W 118°14'0 0.0
2018-Feb-16 23:28N 33°44' W 118°14'0 0.0
2018-Feb-16 22:58N 33°44' W 118°14'0 0.0
2018-Feb-16 22:28N 33°44' W 118°14'0 0.0
2018-Feb-16 21:58N 33°44' W 118°14'0 0.0
2018-Feb-16 21:28N 33°44' W 118°14'0 0.0
2018-Feb-16 20:58N 33°44' W 118°14'0 0.0
2018-Feb-16 20:28N 33°44' W 118°14'0 0.0
2018-Feb-16 19:58N 33°44' W 118°14'0 0.1
2018-Feb-16 19:28N 33°44' W 118°14'0 0.0
2018-Feb-16 18:58N 33°44' W 118°14'0 0.1
2018-Feb-16 18:28N 33°44' W 118°14'0 0.3
2018-Feb-16 18:00N 33°44' W 118°14'0 0.1
2018-Feb-16 17:30N 33°44' W 118°14'0 0.0
2018-Feb-16 17:00N 33°44' W 118°14'0 0.0
2018-Feb-16 16:21N 33°44' W 118°14'0 0.0
2018-Feb-16 15:57N 33°44' W 118°14'0 0.3
2018-Feb-16 15:30N 33°44' W 118°14'0 0.0
2018-Feb-16 15:00N 33°44' W 118°14'0 0.0
2018-Feb-16 14:18N 33°44' W 118°14'0 0.0
2018-Feb-16 11:09N 33°44' W 118°14'0 0.0
2018-Feb-16 10:48N 33°44' W 118°14'0 0.0
2018-Feb-16 06:42N 33°44' W 118°14'0 0.0
2018-Feb-16 06:30N 33°44' W 118°14'0 0.0
2018-Feb-16 05:51N 33°44' W 118°14'0 0.0
2018-Feb-16 05:21N 33°44' W 118°14'0 0.0
2018-Feb-16 04:51N 33°44' W 118°14'0 0.0
2018-Feb-16 04:24N 33°44' W 118°14'0 0.0
2018-Feb-16 02:33N 33°44' W 118°14'0 1.0
2018-Feb-16 02:30N 33°44' W 118°14'0 0.1
2018-Feb-16 01:48N 33°44' W 118°14'0 0.0
2018-Feb-16 01:30N 33°44' W 118°14'0 0.1
2018-Feb-16 01:00N 33°44' W 118°14'0 0.0
2018-Feb-16 00:30N 33°44' W 118°14'0 0.0
2018-Feb-16 00:00N 33°44' W 118°14'0 0.0
2018-Feb-15 23:30N 33°44' W 118°14'0 0.0
2018-Feb-15 23:00N 33°44' W 118°14'1 1.8
2018-Feb-15 22:30N 33°44' W 118°13'3 5.1
2018-Feb-15 22:00N 33°43' W 118°10'3 6.4
2018-Feb-15 21:29N 33°39' W 118°11'3 6.5
2018-Feb-15 21:00N 33°39' W 118°15'3 6.9
2018-Feb-15 20:30N 33°40' W 118°19'4 7.0
2018-Feb-15 20:00N 33°41' W 118°23'4 7.6
2018-Feb-15 19:27N 33°43' W 118°27'10 0.4
2018-Feb-14 19:20N 33°51' W 118°35'1 4.4
2018-Feb-14 19:01N 33°51' W 118°37'1 2.9
2018-Feb-14 18:30N 33°50' W 118°36'3 5.1
2018-Feb-14 18:01N 33°48' W 118°34'4 5.1
2018-Feb-14 17:17N 33°47' W 118°30'8 5.1
2018-Feb-14 15:37N 33°42' W 118°22'1 5.0
2018-Feb-14 15:25N 33°41' W 118°21'3 5.1
2018-Feb-14 14:56N 33°40' W 118°18'3 4.3
2018-Feb-14 14:11N 33°43' W 118°15'1 4.8
2018-Feb-14 14:00N 33°43' W 118°16'1 2.0
2018-Feb-14 13:30N 33°44' W 118°16'2 3.4
2018-Feb-14 13:00N 33°45' W 118°16'0 0.8
2018-Feb-14 12:30N 33°46' W 118°16'0 0.0
2018-Feb-14 12:00N 33°46' W 118°16'0 0.3
2018-Feb-14 11:30N 33°46' W 118°16'0 0.0
2018-Feb-14 10:58N 33°46' W 118°16'0 0.0
2018-Feb-14 10:28N 33°46' W 118°16'0 0.0
2018-Feb-14 09:58N 33°46' W 118°16'0 0.0
2018-Feb-14 09:28N 33°46' W 118°16'0 0.0
2018-Feb-14 08:58N 33°46' W 118°16'0 0.0
2018-Feb-14 08:28N 33°46' W 118°16'0 0.0
2018-Feb-14 07:58N 33°46' W 118°16'0 0.0
2018-Feb-14 07:28N 33°46' W 118°16'0 0.0
2018-Feb-14 06:55N 33°46' W 118°16'0 0.0
2018-Feb-14 06:28N 33°46' W 118°16'0 0.0
2018-Feb-14 05:58N 33°46' W 118°16'0 0.0
2018-Feb-14 05:22N 33°46' W 118°16'0 0.0
2018-Feb-14 04:58N 33°46' W 118°16'0 0.0
2018-Feb-14 04:28N 33°46' W 118°16'0 0.0
2018-Feb-14 03:55N 33°46' W 118°16'0 0.0
2018-Feb-14 03:28N 33°46' W 118°16'0 0.0
2018-Feb-14 02:58N 33°46' W 118°16'0 0.0
2018-Feb-14 02:28N 33°46' W 118°16'0 0.0
2018-Feb-14 01:58N 33°46' W 118°16'0 0.0
2018-Feb-14 01:28N 33°46' W 118°16'0 0.0
2018-Feb-14 00:58N 33°46' W 118°16'1 2.2
2018-Feb-14 00:30N 33°45' W 118°16'2 4.9
2018-Feb-14 00:00N 33°44' W 118°14'2 4.3
2018-Feb-13 23:30N 33°46' W 118°13'0 0.0
2018-Feb-13 22:53N 33°46' W 118°13'0 0.0
2018-Feb-13 22:29N 33°46' W 118°13'0 0.0
2018-Feb-13 21:59N 33°46' W 118°13'0 0.0
2018-Feb-13 21:29N 33°46' W 118°13'0 0.0
2018-Feb-13 20:59N 33°46' W 118°13'0 0.0
2018-Feb-13 20:29N 33°46' W 118°13'0 0.0
2018-Feb-13 19:59N 33°46' W 118°13'0 0.0
2018-Feb-13 19:20N 33°46' W 118°13'0 0.0
2018-Feb-13 18:59N 33°46' W 118°13'0 0.0
2018-Feb-13 18:26N 33°46' W 118°13'0 0.0
2018-Feb-13 17:56N 33°46' W 118°13'0 0.0
2018-Feb-13 17:23N 33°46' W 118°13'0 0.0
2018-Feb-13 16:59N 33°46' W 118°13'0 0.0
2018-Feb-13 16:29N 33°46' W 118°13'0 0.0
2018-Feb-13 15:56N 33°46' W 118°13'0 0.0
2018-Feb-13 15:26N 33°46' W 118°13'0 0.0
2018-Feb-13 14:59N 33°46' W 118°13'0 0.0
2018-Feb-13 12:32N 33°46' W 118°13'0 0.0
2018-Feb-13 12:20N 33°46' W 118°13'0 0.0
2018-Feb-13 11:56N 33°46' W 118°13'0 0.0
2018-Feb-13 06:47N 33°46' W 118°13'0 0.0
2018-Feb-13 06:29N 33°46' W 118°13'0 0.0
2018-Feb-13 05:02N 33°46' W 118°13'0 0.0
2018-Feb-13 04:14N 33°46' W 118°13'0 0.0
2018-Feb-13 03:59N 33°46' W 118°13'3 5.6
2018-Feb-13 03:30N 33°43' W 118°14'3 5.1
2018-Feb-13 03:00N 33°45' W 118°16'1 1.7
2018-Feb-13 02:30N 33°46' W 118°16'0 0.4
2018-Feb-13 02:00N 33°46' W 118°16'1 2.7
2018-Feb-13 01:30N 33°44' W 118°17'1 2.9
2018-Feb-13 01:00N 33°43' W 118°16'1 1.3
2018-Feb-13 00:30N 33°43' W 118°15'2 4.8
2018-Feb-13 00:00N 33°41' W 118°14'3 6.4
2018-Feb-12 23:30N 33°38' W 118°16'16 6.1
2018-Feb-12 20:51N 33°36' W 118°36'7 6.7
2018-Feb-12 19:52N 33°36' W 118°43'3 6.9
2018-Feb-12 19:30N 33°36' W 118°47'3 6.8
2018-Feb-12 19:00N 33°37' W 118°51'3 6.8
2018-Feb-12 18:31N 33°37' W 118°54'3 6.7
2018-Feb-12 18:00N 33°38' W 118°59'  
Track history (hours):
 
Tides and Currents Weather Stations Pressure Air Temp Water Temp Dewpoint Dewpoint Depression Visibility Wind Speed Wind Dir Waves Ship Positions

Mikiona

Owner: Sause Bros Inc, Coos Bay, OR. More information available from US FCC via Universal Licensing System and Coast Guard Vessel Documentation Center.

Last reported at 2018-Feb-22 18:00 UTC. Time now 2018-Feb-22 18:26 UTC.
Position N 37°55' W 122°25'.

Length 38 m; draft 4.5 m.

Type: Towing. MMSI: 367153070.

Date/timePositionNaut miles runAvg speedWind from/ knotsBaromVisibWave heightAir tempDewpointWater temp
2018-Feb-22 18:00N 37°55' W 122°25'0 0.0
2018-Feb-22 17:30N 37°55' W 122°25'0 0.0
2018-Feb-22 17:00N 37°55' W 122°25'0 0.0
2018-Feb-22 16:30N 37°55' W 122°25'0 0.0
2018-Feb-22 16:00N 37°55' W 122°25'0 0.0
2018-Feb-22 15:30N 37°55' W 122°25'0 0.0
2018-Feb-22 14:54N 37°55' W 122°25'0 0.0
2018-Feb-22 14:24N 37°55' W 122°25'0 0.0
2018-Feb-22 14:00N 37°55' W 122°25'0 0.0
2018-Feb-22 13:30N 37°55' W 122°25'0 0.0
2018-Feb-22 13:00N 37°55' W 122°25'0 0.0
2018-Feb-22 12:30N 37°55' W 122°25'0 0.0
2018-Feb-22 11:57N 37°55' W 122°25'0 0.0
2018-Feb-22 11:30N 37°55' W 122°25'0 0.0
2018-Feb-22 11:00N 37°55' W 122°25'0 0.0
2018-Feb-22 10:30N 37°55' W 122°25'0 0.0
2018-Feb-22 10:00N 37°55' W 122°25'0 0.0
2018-Feb-22 09:27N 37°55' W 122°25'0 0.0
2018-Feb-22 09:00N 37°55' W 122°25'0 0.0
2018-Feb-22 08:30N 37°55' W 122°25'0 0.0
2018-Feb-22 08:00N 37°55' W 122°25'0 0.0
2018-Feb-22 07:30N 37°55' W 122°25'0 0.0
2018-Feb-22 06:57N 37°55' W 122°25'0 0.0
2018-Feb-22 06:30N 37°55' W 122°25'0 0.0
2018-Feb-22 06:00N 37°55' W 122°25'0 0.0
2018-Feb-22 05:30N 37°55' W 122°25'0 0.0
2018-Feb-22 04:57N 37°55' W 122°25'0 0.0
2018-Feb-22 04:30N 37°55' W 122°25'0 0.0
2018-Feb-22 04:00N 37°55' W 122°25'0 0.0
2018-Feb-22 03:30N 37°55' W 122°25'0 0.0
2018-Feb-22 03:00N 37°55' W 122°25'0 0.0
2018-Feb-22 02:24N 37°55' W 122°25'0 0.0
2018-Feb-22 02:00N 37°55' W 122°25'0 0.0
2018-Feb-22 01:30N 37°55' W 122°25'0 0.0
2018-Feb-22 00:57N 37°55' W 122°25'0 0.0
2018-Feb-22 00:30N 37°55' W 122°25'0 0.0
2018-Feb-22 00:00N 37°55' W 122°25'0 0.0
2018-Feb-21 23:30N 37°55' W 122°25'0 0.0
2018-Feb-21 23:00N 37°55' W 122°25'0 0.0
2018-Feb-21 22:30N 37°55' W 122°25'0 0.0
2018-Feb-21 22:00N 37°55' W 122°25'0 0.0
2018-Feb-21 21:30N 37°55' W 122°25'0 0.2
2018-Feb-21 21:00N 37°55' W 122°25'0 0.5
2018-Feb-21 20:30N 37°55' W 122°25'1 2.0
2018-Feb-21 20:00N 37°55' W 122°26'2 4.2
2018-Feb-21 19:30N 37°53' W 122°25'3 6.7
2018-Feb-21 19:00N 37°50' W 122°24'4 8.4
2018-Feb-21 18:30N 37°49' W 122°30'4 7.6
2018-Feb-21 18:00N 37°47' W 122°34'4 8.2
2018-Feb-21 17:30N 37°46' W 122°39'4 7.6
2018-Feb-21 17:00N 37°42' W 122°40'5 8.4
2018-Feb-21 16:23N 37°37' W 122°39'3 7.6
2018-Feb-21 16:00N 37°34' W 122°39'5 9.3
2018-Feb-21 15:30N 37°29' W 122°39'5 9.3
2018-Feb-21 15:00N 37°25' W 122°40'5 9.5
2018-Feb-21 14:30N 37°20' W 122°40'5 9.4
2018-Feb-21 13:57N 37°15' W 122°40'149 7.7
2018-Feb-20 18:39N 34°60' W 121°22'2 6.4
2018-Feb-20 18:25N 34°59' W 121°21'7 6.7
2018-Feb-20 17:22N 34°53' W 121°16'3 6.8
2018-Feb-20 17:00N 34°51' W 121°14'7 6.9
2018-Feb-20 15:57N 34°45' W 121°08'3 6.9
2018-Feb-20 15:29N 34°43' W 121°06'3 6.9
2018-Feb-20 15:00N 34°40' W 121°04'4 7.1
2018-Feb-20 14:30N 34°37' W 121°01'3 6.5
2018-Feb-20 14:00N 34°35' W 120°59'3 6.8
2018-Feb-20 13:30N 34°32' W 120°56'3 6.7
2018-Feb-20 13:00N 34°29' W 120°54'3 6.8
2018-Feb-20 12:31N 34°27' W 120°51'3 6.9
2018-Feb-20 12:00N 34°26' W 120°47'3 7.0
2018-Feb-20 11:30N 34°25' W 120°43'4 7.0
2018-Feb-20 11:00N 34°24' W 120°39'3 7.0
2018-Feb-20 10:30N 34°23' W 120°35'4 7.4
2018-Feb-20 10:00N 34°22' W 120°30'4 7.4
2018-Feb-20 09:30N 34°21' W 120°26'4 7.5
2018-Feb-20 09:00N 34°20' W 120°22'4 7.9
2018-Feb-20 08:30N 34°19' W 120°17'4 7.8
2018-Feb-20 08:00N 34°18' W 120°13'4 7.3
2018-Feb-20 07:30N 34°17' W 120°08'4 6.4
2018-Feb-20 06:56N 34°16' W 120°04'3 6.2
2018-Feb-20 06:30N 34°15' W 120°01'3 6.2
2018-Feb-20 06:00N 34°14' W 119°57'3 5.8
2018-Feb-20 05:27N 34°13' W 119°54'2 5.5
2018-Feb-20 05:00N 34°13' W 119°51'3 5.4
2018-Feb-20 04:28N 34°12' W 119°47'3 5.1
2018-Feb-20 03:57N 34°11' W 119°44'3 5.0
2018-Feb-20 03:23N 34°10' W 119°41'2 4.8
2018-Feb-20 02:55N 34°10' W 119°38'2 4.7
2018-Feb-20 02:28N 34°09' W 119°36'2 4.5
2018-Feb-20 01:57N 34°09' W 119°33'2 4.1
2018-Feb-20 01:26N 34°08' W 119°31'2 3.9
2018-Feb-20 00:52N 34°08' W 119°28'2 3.8
2018-Feb-20 00:24N 34°07' W 119°26'2 3.6
2018-Feb-19 23:57N 34°07' W 119°24'2 3.7
2018-Feb-19 23:30N 34°06' W 119°22'2 3.5
2018-Feb-19 22:59N 34°06' W 119°20'2 3.7
2018-Feb-19 22:30N 34°05' W 119°18'2 3.8
2018-Feb-19 22:00N 34°05' W 119°16'3 4.3
2018-Feb-19 21:23N 34°04' W 119°13'2 4.7
2018-Feb-19 20:58N 34°03' W 119°11'2 4.9
2018-Feb-19 20:29N 34°01' W 119°08'3 5.1
2018-Feb-19 20:00N 34°00' W 119°06'3 5.2
2018-Feb-19 19:30N 33°59' W 119°03'3 5.2
2018-Feb-19 19:00N 33°58' W 119°00'2 5.0
2018-Feb-19 18:30N 33°56' W 118°58'3 5.1
2018-Feb-19 18:00N 33°55' W 118°55'3 5.1
2018-Feb-19 17:30N 33°54' W 118°52'2 5.0
2018-Feb-19 17:00N 33°53' W 118°50'2 4.7
2018-Feb-19 16:30N 33°52' W 118°47'2 4.7
2018-Feb-19 16:00N 33°50' W 118°45'2 4.5
2018-Feb-19 15:30N 33°49' W 118°43'2 4.1
2018-Feb-19 14:59N 33°48' W 118°40'2 4.1
2018-Feb-19 14:30N 33°47' W 118°38'2 3.8
2018-Feb-19 14:01N 33°46' W 118°36'2 3.5
2018-Feb-19 13:25N 33°45' W 118°34'1 3.2
2018-Feb-19 12:59N 33°44' W 118°33'15 2.9
2018-Feb-19 07:54N 33°42' W 118°15'1 3.0
2018-Feb-19 07:28N 33°43' W 118°16'2 5.5
2018-Feb-19 07:00N 33°46' W 118°16'0 0.3
2018-Feb-19 06:30N 33°46' W 118°16'0 0.1
2018-Feb-19 06:00N 33°46' W 118°16'0 0.3
2018-Feb-19 05:30N 33°46' W 118°16'0 0.1
2018-Feb-19 05:00N 33°46' W 118°16'0 0.0
2018-Feb-19 04:30N 33°46' W 118°16'0 0.0
2018-Feb-19 04:00N 33°46' W 118°16'0 0.0
2018-Feb-19 03:30N 33°46' W 118°16'0 0.0
2018-Feb-19 03:00N 33°46' W 118°16'0 0.0
2018-Feb-19 02:30N 33°46' W 118°16'0 0.0
2018-Feb-19 02:00N 33°46' W 118°16'0 0.0
2018-Feb-19 01:30N 33°46' W 118°16'0 0.0
2018-Feb-19 01:00N 33°46' W 118°16'0 0.0
2018-Feb-19 00:30N 33°46' W 118°16'0 0.0
2018-Feb-19 00:00N 33°46' W 118°16'2 3.1
2018-Feb-18 23:30N 33°44' W 118°17'3 6.0
2018-Feb-18 23:01N 33°45' W 118°13'1 2.1
2018-Feb-18 22:23N 33°46' W 118°13'0 0.0
2018-Feb-18 21:59N 33°46' W 118°13'0 0.0
2018-Feb-18 21:29N 33°46' W 118°13'0 0.1
2018-Feb-18 20:59N 33°46' W 118°13'0 0.1
2018-Feb-18 20:29N 33°46' W 118°13'0 0.1
2018-Feb-18 19:53N 33°46' W 118°13'0 0.0
2018-Feb-18 19:29N 33°46' W 118°13'0 0.0
2018-Feb-18 18:59N 33°46' W 118°13'0 0.1
2018-Feb-18 18:26N 33°46' W 118°13'0 0.0
2018-Feb-18 17:59N 33°46' W 118°13'0 0.0
2018-Feb-18 17:29N 33°46' W 118°13'0 0.0
2018-Feb-18 16:59N 33°46' W 118°13'0 0.0
2018-Feb-18 16:29N 33°46' W 118°13'0 0.0
2018-Feb-18 15:59N 33°46' W 118°13'0 0.1
2018-Feb-18 15:29N 33°46' W 118°13'0 0.0
2018-Feb-18 14:59N 33°46' W 118°13'0 0.0
2018-Feb-18 14:26N 33°46' W 118°13'0 0.1
2018-Feb-18 13:50N 33°46' W 118°13'0 0.0
2018-Feb-18 13:26N 33°46' W 118°13'0 0.1
2018-Feb-18 12:44N 33°46' W 118°13'0 0.1
2018-Feb-18 12:17N 33°46' W 118°13'0 0.0
2018-Feb-18 11:59N 33°46' W 118°13'0 0.0
2018-Feb-18 11:29N 33°46' W 118°13'0 0.0
2018-Feb-18 10:56N 33°46' W 118°13'0 0.0
2018-Feb-18 10:29N 33°46' W 118°13'0 0.0
2018-Feb-18 09:59N 33°46' W 118°13'0 0.0
2018-Feb-18 09:29N 33°46' W 118°13'0 0.0
2018-Feb-18 08:44N 33°46' W 118°13'0 0.2
2018-Feb-18 08:26N 33°46' W 118°13'0 0.0
2018-Feb-18 07:23N 33°46' W 118°13'0 0.0
2018-Feb-18 06:44N 33°46' W 118°13'0 0.0
2018-Feb-18 06:29N 33°46' W 118°13'0 0.0
2018-Feb-18 05:19N 33°46' W 118°13'0 0.5
2018-Feb-18 05:01N 33°46' W 118°13'4 7.2
2018-Feb-18 04:30N 33°43' W 118°16'3 5.4
2018-Feb-18 04:00N 33°46' W 118°16'0 0.1
2018-Feb-18 03:30N 33°46' W 118°16'1 2.7
2018-Feb-18 03:00N 33°45' W 118°16'2 4.2
2018-Feb-18 02:30N 33°43' W 118°15'2 3.2
2018-Feb-18 02:00N 33°44' W 118°14'0 0.1
2018-Feb-18 01:31N 33°44' W 118°14'0 0.2
2018-Feb-18 00:58N 33°44' W 118°14'0 0.0
2018-Feb-18 00:25N 33°44' W 118°14'0 0.0
2018-Feb-17 23:58N 33°44' W 118°14'0 0.0
2018-Feb-17 23:28N 33°44' W 118°14'0 0.0
2018-Feb-17 22:58N 33°44' W 118°14'0 0.0
2018-Feb-17 22:28N 33°44' W 118°14'0 0.0
2018-Feb-17 21:58N 33°44' W 118°14'0 0.0
2018-Feb-17 21:25N 33°44' W 118°14'0 0.0
2018-Feb-17 20:58N 33°44' W 118°14'0 0.0
2018-Feb-17 20:28N 33°44' W 118°14'0 0.1
2018-Feb-17 19:58N 33°44' W 118°14'0 0.0
2018-Feb-17 19:28N 33°44' W 118°14'0 0.0
2018-Feb-17 18:58N 33°44' W 118°14'0 0.0
2018-Feb-17 18:28N 33°44' W 118°14'0 0.1
2018-Feb-17 17:58N 33°44' W 118°14'0 0.1
2018-Feb-17 17:25N 33°44' W 118°14'0 0.0
2018-Feb-17 16:58N 33°44' W 118°14'0 0.1
2018-Feb-17 16:28N 33°44' W 118°14'0 0.0
2018-Feb-17 15:58N 33°44' W 118°14'0 0.1
2018-Feb-17 15:28N 33°44' W 118°14'0 0.0
2018-Feb-17 14:58N 33°44' W 118°14'0 0.1
2018-Feb-17 14:28N 33°44' W 118°14'0 0.0
2018-Feb-17 13:46N 33°44' W 118°14'0 0.1
2018-Feb-17 13:13N 33°44' W 118°14'0 0.0
2018-Feb-17 07:28N 33°44' W 118°14'0 0.0
2018-Feb-17 06:01N 33°44' W 118°14'0 0.0
2018-Feb-17 05:49N 33°44' W 118°14'0 0.0
2018-Feb-17 05:22N 33°44' W 118°14'0 0.0
2018-Feb-17 04:58N 33°44' W 118°14'0 0.1
2018-Feb-17 04:28N 33°44' W 118°14'0 0.0
2018-Feb-17 03:58N 33°44' W 118°14'0 0.0
2018-Feb-17 03:28N 33°44' W 118°14'0 0.0
2018-Feb-17 02:58N 33°44' W 118°14'0 0.0
2018-Feb-17 02:28N 33°44' W 118°14'0 0.0
2018-Feb-17 01:58N 33°44' W 118°14'0 0.0
2018-Feb-17 01:28N 33°44' W 118°14'0 0.0
2018-Feb-17 00:58N 33°44' W 118°14'0 0.0
2018-Feb-17 00:22N 33°44' W 118°14'0 0.1
2018-Feb-16 23:58N 33°44' W 118°14'0 0.0
2018-Feb-16 23:28N 33°44' W 118°14'0 0.0
2018-Feb-16 22:58N 33°44' W 118°14'0 0.0
2018-Feb-16 22:28N 33°44' W 118°14'0 0.0
2018-Feb-16 21:58N 33°44' W 118°14'0 0.0
2018-Feb-16 21:28N 33°44' W 118°14'0 0.0
2018-Feb-16 20:58N 33°44' W 118°14'0 0.0
2018-Feb-16 20:28N 33°44' W 118°14'0 0.0
2018-Feb-16 19:58N 33°44' W 118°14'0 0.1
2018-Feb-16 19:28N 33°44' W 118°14'0 0.0
2018-Feb-16 18:58N 33°44' W 118°14'0 0.1
2018-Feb-16 18:28N 33°44' W 118°14'0 0.3
2018-Feb-16 18:00N 33°44' W 118°14'0 0.1
2018-Feb-16 17:30N 33°44' W 118°14'0 0.0
2018-Feb-16 17:00N 33°44' W 118°14'0 0.0
2018-Feb-16 16:21N 33°44' W 118°14'0 0.0
2018-Feb-16 15:57N 33°44' W 118°14'0 0.3
2018-Feb-16 15:30N 33°44' W 118°14'0 0.0
2018-Feb-16 15:00N 33°44' W 118°14'0 0.0
2018-Feb-16 14:18N 33°44' W 118°14'0 0.0
2018-Feb-16 11:09N 33°44' W 118°14'0 0.0
2018-Feb-16 10:48N 33°44' W 118°14'0 0.0
2018-Feb-16 06:42N 33°44' W 118°14'0 0.0
2018-Feb-16 06:30N 33°44' W 118°14'0 0.0
2018-Feb-16 05:51N 33°44' W 118°14'0 0.0
2018-Feb-16 05:21N 33°44' W 118°14'0 0.0
2018-Feb-16 04:51N 33°44' W 118°14'0 0.0
2018-Feb-16 04:24N 33°44' W 118°14'0 0.0
2018-Feb-16 02:33N 33°44' W 118°14'0 1.0
2018-Feb-16 02:30N 33°44' W 118°14'0 0.1
2018-Feb-16 01:48N 33°44' W 118°14'0 0.0
2018-Feb-16 01:30N 33°44' W 118°14'0 0.1
2018-Feb-16 01:00N 33°44' W 118°14'0 0.0
2018-Feb-16 00:30N 33°44' W 118°14'0 0.0
2018-Feb-16 00:00N 33°44' W 118°14'0 0.0
2018-Feb-15 23:30N 33°44' W 118°14'0 0.0
2018-Feb-15 23:00N 33°44' W 118°14'1 1.8
2018-Feb-15 22:30N 33°44' W 118°13'3 5.1
2018-Feb-15 22:00N 33°43' W 118°10'3 6.4
2018-Feb-15 21:29N 33°39' W 118°11'3 6.5
2018-Feb-15 21:00N 33°39' W 118°15'3 6.9
2018-Feb-15 20:30N 33°40' W 118°19'4 7.0
2018-Feb-15 20:00N 33°41' W 118°23'4 7.6
2018-Feb-15 19:27N 33°43' W 118°27'10 0.4
2018-Feb-14 19:20N 33°51' W 118°35'1 4.4
2018-Feb-14 19:01N 33°51' W 118°37'1 2.9
2018-Feb-14 18:30N 33°50' W 118°36'3 5.1
2018-Feb-14 18:01N 33°48' W 118°34'4 5.1
2018-Feb-14 17:17N 33°47' W 118°30'8 5.1
2018-Feb-14 15:37N 33°42' W 118°22'1 5.0
2018-Feb-14 15:25N 33°41' W 118°21'3 5.1
2018-Feb-14 14:56N 33°40' W 118°18'3 4.3
2018-Feb-14 14:11N 33°43' W 118°15'1 4.8
2018-Feb-14 14:00N 33°43' W 118°16'1 2.0
2018-Feb-14 13:30N 33°44' W 118°16'2 3.4
2018-Feb-14 13:00N 33°45' W 118°16'0 0.8
2018-Feb-14 12:30N 33°46' W 118°16'0 0.0
2018-Feb-14 12:00N 33°46' W 118°16'0 0.3
2018-Feb-14 11:30N 33°46' W 118°16'0 0.0
2018-Feb-14 10:58N 33°46' W 118°16'0 0.0
2018-Feb-14 10:28N 33°46' W 118°16'0 0.0
2018-Feb-14 09:58N 33°46' W 118°16'0 0.0
2018-Feb-14 09:28N 33°46' W 118°16'0 0.0
2018-Feb-14 08:58N 33°46' W 118°16'0 0.0
2018-Feb-14 08:28N 33°46' W 118°16'0 0.0
2018-Feb-14 07:58N 33°46' W 118°16'0 0.0
2018-Feb-14 07:28N 33°46' W 118°16'0 0.0
2018-Feb-14 06:55N 33°46' W 118°16'0 0.0
2018-Feb-14 06:28N 33°46' W 118°16'0 0.0
2018-Feb-14 05:58N 33°46' W 118°16'0 0.0
2018-Feb-14 05:22N 33°46' W 118°16'0 0.0
2018-Feb-14 04:58N 33°46' W 118°16'0 0.0
2018-Feb-14 04:28N 33°46' W 118°16'0 0.0
2018-Feb-14 03:55N 33°46' W 118°16'0 0.0
2018-Feb-14 03:28N 33°46' W 118°16'0 0.0
2018-Feb-14 02:58N 33°46' W 118°16'0 0.0
2018-Feb-14 02:28N 33°46' W 118°16'0 0.0
2018-Feb-14 01:58N 33°46' W 118°16'0 0.0
2018-Feb-14 01:28N 33°46' W 118°16'0 0.0
2018-Feb-14 00:58N 33°46' W 118°16'1 2.2
2018-Feb-14 00:30N 33°45' W 118°16'2 4.9
2018-Feb-14 00:00N 33°44' W 118°14'2 4.3
2018-Feb-13 23:30N 33°46' W 118°13'0 0.0
2018-Feb-13 22:53N 33°46' W 118°13'0 0.0
2018-Feb-13 22:29N 33°46' W 118°13'0 0.0
2018-Feb-13 21:59N 33°46' W 118°13'0 0.0
2018-Feb-13 21:29N 33°46' W 118°13'0 0.0
2018-Feb-13 20:59N 33°46' W 118°13'0 0.0
2018-Feb-13 20:29N 33°46' W 118°13'0 0.0
2018-Feb-13 19:59N 33°46' W 118°13'0 0.0
2018-Feb-13 19:20N 33°46' W 118°13'0 0.0
2018-Feb-13 18:59N 33°46' W 118°13'0 0.0
2018-Feb-13 18:26N 33°46' W 118°13'0 0.0
2018-Feb-13 17:56N 33°46' W 118°13'0 0.0
2018-Feb-13 17:23N 33°46' W 118°13'0 0.0
2018-Feb-13 16:59N 33°46' W 118°13'0 0.0
2018-Feb-13 16:29N 33°46' W 118°13'0 0.0
2018-Feb-13 15:56N 33°46' W 118°13'0 0.0
2018-Feb-13 15:26N 33°46' W 118°13'0 0.0
2018-Feb-13 14:59N 33°46' W 118°13'0 0.0
2018-Feb-13 12:32N 33°46' W 118°13'0 0.0
2018-Feb-13 12:20N 33°46' W 118°13'0 0.0
2018-Feb-13 11:56N 33°46' W 118°13'0 0.0
2018-Feb-13 06:47N 33°46' W 118°13'0 0.0
2018-Feb-13 06:29N 33°46' W 118°13'0 0.0
2018-Feb-13 05:02N 33°46' W 118°13'0 0.0
2018-Feb-13 04:14N 33°46' W 118°13'0 0.0
2018-Feb-13 03:59N 33°46' W 118°13'3 5.6
2018-Feb-13 03:30N 33°43' W 118°14'3 5.1
2018-Feb-13 03:00N 33°45' W 118°16'1 1.7
2018-Feb-13 02:30N 33°46' W 118°16'0 0.4
2018-Feb-13 02:00N 33°46' W 118°16'1 2.7
2018-Feb-13 01:30N 33°44' W 118°17'1 2.9
2018-Feb-13 01:00N 33°43' W 118°16'1 1.3
2018-Feb-13 00:30N 33°43' W 118°15'2 4.8
2018-Feb-13 00:00N 33°41' W 118°14'3 6.4
2018-Feb-12 23:30N 33°38' W 118°16'16 6.1
2018-Feb-12 20:51N 33°36' W 118°36'7 6.7
2018-Feb-12 19:52N 33°36' W 118°43'3 6.9
2018-Feb-12 19:30N 33°36' W 118°47'3 6.8
2018-Feb-12 19:00N 33°37' W 118°51'3 6.8
2018-Feb-12 18:31N 33°37' W 118°54'3 6.7
2018-Feb-12 18:00N 33°38' W 118°59'  

Dump ship's entire track history